sensor_id;sensor_type;location;lat;lon;timestamp;P1;durP1;ratioP1;P2;durP2;ratioP2
20036;SDS011;10179;42.640;23.312;2024-01-27T00:00:30;6.47;;;1.75;;
20036;SDS011;10179;42.640;23.312;2024-01-27T00:02:55;5.15;;;1.80;;
20036;SDS011;10179;42.640;23.312;2024-01-27T00:05:21;5.43;;;1.67;;
20036;SDS011;10179;42.640;23.312;2024-01-27T00:07:46;10.38;;;2.05;;
20036;SDS011;10179;42.640;23.312;2024-01-27T00:10:12;2.75;;;1.63;;
20036;SDS011;10179;42.640;23.312;2024-01-27T00:12:37;3.92;;;1.45;;
20036;SDS011;10179;42.640;23.312;2024-01-27T00:15:03;7.75;;;2.28;;
20036;SDS011;10179;42.640;23.312;2024-01-27T00:17:28;6.35;;;2.05;;
20036;SDS011;10179;42.640;23.312;2024-01-27T00:19:54;6.28;;;2.22;;
20036;SDS011;10179;42.640;23.312;2024-01-27T00:22:20;4.07;;;1.90;;
20036;SDS011;10179;42.640;23.312;2024-01-27T00:24:46;8.23;;;2.45;;
20036;SDS011;10179;42.640;23.312;2024-01-27T00:27:12;6.13;;;2.70;;
20036;SDS011;10179;42.640;23.312;2024-01-27T00:29:37;9.70;;;2.45;;
20036;SDS011;10179;42.640;23.312;2024-01-27T00:32:02;5.88;;;2.25;;
20036;SDS011;10179;42.640;23.312;2024-01-27T00:34:28;7.95;;;2.85;;
20036;SDS011;10179;42.640;23.312;2024-01-27T00:36:53;6.15;;;1.92;;
20036;SDS011;10179;42.640;23.312;2024-01-27T00:39:19;3.83;;;1.80;;
20036;SDS011;10179;42.640;23.312;2024-01-27T00:41:45;5.10;;;1.58;;
20036;SDS011;10179;42.640;23.312;2024-01-27T00:44:10;2.80;;;1.60;;
20036;SDS011;10179;42.640;23.312;2024-01-27T00:46:39;6.32;;;2.00;;
20036;SDS011;10179;42.640;23.312;2024-01-27T00:49:04;8.75;;;2.35;;
20036;SDS011;10179;42.640;23.312;2024-01-27T00:51:30;6.20;;;1.45;;
20036;SDS011;10179;42.640;23.312;2024-01-27T00:53:56;3.30;;;1.30;;
20036;SDS011;10179;42.640;23.312;2024-01-27T00:56:21;6.13;;;1.38;;
20036;SDS011;10179;42.640;23.312;2024-01-27T00:58:47;3.40;;;1.42;;
20036;SDS011;10179;42.640;23.312;2024-01-27T01:01:13;8.05;;;2.10;;
20036;SDS011;10179;42.640;23.312;2024-01-27T01:03:38;7.72;;;1.83;;
20036;SDS011;10179;42.640;23.312;2024-01-27T01:06:03;4.47;;;1.98;;
20036;SDS011;10179;42.640;23.312;2024-01-27T01:08:29;5.35;;;1.55;;
20036;SDS011;10179;42.640;23.312;2024-01-27T01:10:54;3.85;;;1.52;;
20036;SDS011;10179;42.640;23.312;2024-01-27T01:13:20;5.43;;;1.92;;
20036;SDS011;10179;42.640;23.312;2024-01-27T01:15:45;6.18;;;1.88;;
20036;SDS011;10179;42.640;23.312;2024-01-27T01:18:11;6.00;;;1.88;;
20036;SDS011;10179;42.640;23.312;2024-01-27T01:20:36;3.33;;;1.48;;
20036;SDS011;10179;42.640;23.312;2024-01-27T01:23:01;2.97;;;1.10;;
20036;SDS011;10179;42.640;23.312;2024-01-27T01:25:27;3.08;;;1.42;;
20036;SDS011;10179;42.640;23.312;2024-01-27T01:27:53;5.07;;;1.75;;
20036;SDS011;10179;42.640;23.312;2024-01-27T01:30:18;3.88;;;1.55;;
20036;SDS011;10179;42.640;23.312;2024-01-27T01:32:44;5.80;;;1.55;;
20036;SDS011;10179;42.640;23.312;2024-01-27T01:35:12;4.30;;;1.60;;
20036;SDS011;10179;42.640;23.312;2024-01-27T01:37:38;5.72;;;1.20;;
20036;SDS011;10179;42.640;23.312;2024-01-27T01:40:04;3.22;;;1.17;;
20036;SDS011;10179;42.640;23.312;2024-01-27T01:42:30;1.35;;;0.93;;
20036;SDS011;10179;42.640;23.312;2024-01-27T01:44:56;5.47;;;1.27;;
20036;SDS011;10179;42.640;23.312;2024-01-27T01:47:21;9.50;;;1.50;;
20036;SDS011;10179;42.640;23.312;2024-01-27T01:49:47;4.80;;;1.40;;
20036;SDS011;10179;42.640;23.312;2024-01-27T01:52:13;2.88;;;1.20;;
20036;SDS011;10179;42.640;23.312;2024-01-27T01:54:46;4.20;;;1.10;;
20036;SDS011;10179;42.640;23.312;2024-01-27T01:57:13;4.15;;;1.20;;
20036;SDS011;10179;42.640;23.312;2024-01-27T01:59:39;2.55;;;1.00;;
20036;SDS011;10179;42.640;23.312;2024-01-27T02:02:06;3.78;;;0.90;;
20036;SDS011;10179;42.640;23.312;2024-01-27T02:04:39;1.42;;;0.90;;
20036;SDS011;10179;42.640;23.312;2024-01-27T02:07:05;2.42;;;1.00;;
20036;SDS011;10179;42.640;23.312;2024-01-27T02:09:30;2.13;;;0.80;;
20036;SDS011;10179;42.640;23.312;2024-01-27T02:11:56;3.00;;;1.00;;
20036;SDS011;10179;42.640;23.312;2024-01-27T02:14:21;4.05;;;1.20;;
20036;SDS011;10179;42.640;23.312;2024-01-27T02:16:50;3.38;;;1.25;;
20036;SDS011;10179;42.640;23.312;2024-01-27T02:19:15;2.95;;;0.90;;
20036;SDS011;10179;42.640;23.312;2024-01-27T02:21:41;2.72;;;0.93;;
20036;SDS011;10179;42.640;23.312;2024-01-27T02:24:07;2.15;;;0.95;;
20036;SDS011;10179;42.640;23.312;2024-01-27T02:26:32;1.80;;;1.00;;
20036;SDS011;10179;42.640;23.312;2024-01-27T02:28:58;1.88;;;0.80;;
20036;SDS011;10179;42.640;23.312;2024-01-27T02:31:23;1.77;;;0.80;;
20036;SDS011;10179;42.640;23.312;2024-01-27T02:33:48;2.72;;;1.13;;
20036;SDS011;10179;42.640;23.312;2024-01-27T02:36:14;2.13;;;1.00;;
20036;SDS011;10179;42.640;23.312;2024-01-27T02:38:39;1.85;;;1.02;;
20036;SDS011;10179;42.640;23.312;2024-01-27T02:41:05;3.30;;;0.95;;
20036;SDS011;10179;42.640;23.312;2024-01-27T02:43:30;2.30;;;0.90;;
20036;SDS011;10179;42.640;23.312;2024-01-27T02:45:56;4.63;;;0.90;;
20036;SDS011;10179;42.640;23.312;2024-01-27T02:48:21;2.15;;;0.80;;
20036;SDS011;10179;42.640;23.312;2024-01-27T02:50:46;0.57;;;0.57;;
20036;SDS011;10179;42.640;23.312;2024-01-27T02:53:12;0.90;;;0.70;;
20036;SDS011;10179;42.640;23.312;2024-01-27T02:55:37;2.80;;;1.00;;
20036;SDS011;10179;42.640;23.312;2024-01-27T02:58:02;3.03;;;1.00;;
20036;SDS011;10179;42.640;23.312;2024-01-27T03:00:28;3.42;;;1.13;;
20036;SDS011;10179;42.640;23.312;2024-01-27T03:02:53;2.03;;;0.93;;
20036;SDS011;10179;42.640;23.312;2024-01-27T03:05:22;2.92;;;0.90;;
20036;SDS011;10179;42.640;23.312;2024-01-27T03:07:47;1.77;;;1.13;;
20036;SDS011;10179;42.640;23.312;2024-01-27T03:10:13;0.85;;;0.73;;
20036;SDS011;10179;42.640;23.312;2024-01-27T03:12:38;3.80;;;1.50;;
20036;SDS011;10179;42.640;23.312;2024-01-27T03:15:03;3.20;;;0.98;;
20036;SDS011;10179;42.640;23.312;2024-01-27T03:17:29;1.38;;;0.90;;
20036;SDS011;10179;42.640;23.312;2024-01-27T03:19:55;3.83;;;1.10;;
20036;SDS011;10179;42.640;23.312;2024-01-27T03:22:20;2.65;;;1.20;;
20036;SDS011;10179;42.640;23.312;2024-01-27T03:24:45;4.05;;;1.85;;
20036;SDS011;10179;42.640;23.312;2024-01-27T03:27:11;3.67;;;1.33;;
20036;SDS011;10179;42.640;23.312;2024-01-27T03:29:36;0.77;;;0.70;;
20036;SDS011;10179;42.640;23.312;2024-01-27T03:32:02;2.75;;;1.17;;
20036;SDS011;10179;42.640;23.312;2024-01-27T03:34:27;1.67;;;0.70;;
20036;SDS011;10179;42.640;23.312;2024-01-27T03:36:53;3.03;;;1.27;;
20036;SDS011;10179;42.640;23.312;2024-01-27T03:39:18;1.35;;;0.88;;
20036;SDS011;10179;42.640;23.312;2024-01-27T03:41:44;2.47;;;1.10;;
20036;SDS011;10179;42.640;23.312;2024-01-27T03:44:09;1.70;;;0.82;;
20036;SDS011;10179;42.640;23.312;2024-01-27T03:46:35;2.78;;;1.10;;
20036;SDS011;10179;42.640;23.312;2024-01-27T03:49:01;1.92;;;0.55;;
20036;SDS011;10179;42.640;23.312;2024-01-27T03:51:26;2.22;;;1.30;;
20036;SDS011;10179;42.640;23.312;2024-01-27T03:53:52;3.00;;;1.10;;
20036;SDS011;10179;42.640;23.312;2024-01-27T03:56:17;2.90;;;1.20;;
20036;SDS011;10179;42.640;23.312;2024-01-27T03:58:43;2.83;;;1.35;;
20036;SDS011;10179;42.640;23.312;2024-01-27T04:01:08;2.00;;;1.00;;
20036;SDS011;10179;42.640;23.312;2024-01-27T04:03:33;3.65;;;1.50;;
20036;SDS011;10179;42.640;23.312;2024-01-27T04:05:59;1.63;;;1.10;;
20036;SDS011;10179;42.640;23.312;2024-01-27T04:08:27;1.42;;;0.90;;
20036;SDS011;10179;42.640;23.312;2024-01-27T04:10:53;4.35;;;1.70;;
20036;SDS011;10179;42.640;23.312;2024-01-27T04:13:19;3.47;;;1.27;;
20036;SDS011;10179;42.640;23.312;2024-01-27T04:15:44;0.70;;;0.70;;
20036;SDS011;10179;42.640;23.312;2024-01-27T04:18:10;1.27;;;0.80;;
20036;SDS011;10179;42.640;23.312;2024-01-27T04:20:36;1.08;;;0.95;;
20036;SDS011;10179;42.640;23.312;2024-01-27T04:23:02;2.28;;;1.08;;
20036;SDS011;10179;42.640;23.312;2024-01-27T04:25:28;3.72;;;1.48;;
20036;SDS011;10179;42.640;23.312;2024-01-27T04:27:53;2.65;;;0.77;;
20036;SDS011;10179;42.640;23.312;2024-01-27T04:30:19;4.25;;;1.25;;
20036;SDS011;10179;42.640;23.312;2024-01-27T04:32:44;1.65;;;0.70;;
20036;SDS011;10179;42.640;23.312;2024-01-27T04:35:10;2.72;;;0.93;;
20036;SDS011;10179;42.640;23.312;2024-01-27T04:37:37;1.75;;;1.10;;
20036;SDS011;10179;42.640;23.312;2024-01-27T04:40:03;2.17;;;0.93;;
20036;SDS011;10179;42.640;23.312;2024-01-27T04:42:31;0.70;;;0.60;;
20036;SDS011;10179;42.640;23.312;2024-01-27T04:45:00;1.23;;;0.75;;
20036;SDS011;10179;42.640;23.312;2024-01-27T04:47:25;1.67;;;0.90;;
20036;SDS011;10179;42.640;23.312;2024-01-27T04:49:51;0.50;;;0.50;;
20036;SDS011;10179;42.640;23.312;2024-01-27T04:52:16;0.75;;;0.47;;
20036;SDS011;10179;42.640;23.312;2024-01-27T04:54:42;1.30;;;0.52;;
20036;SDS011;10179;42.640;23.312;2024-01-27T04:57:07;1.27;;;0.45;;
20036;SDS011;10179;42.640;23.312;2024-01-27T04:59:33;0.40;;;0.40;;
20036;SDS011;10179;42.640;23.312;2024-01-27T05:01:59;0.77;;;0.40;;
20036;SDS011;10179;42.640;23.312;2024-01-27T05:04:24;1.80;;;1.10;;
20036;SDS011;10179;42.640;23.312;2024-01-27T05:06:51;1.23;;;0.93;;
20036;SDS011;10179;42.640;23.312;2024-01-27T05:09:17;1.02;;;0.82;;
20036;SDS011;10179;42.640;23.312;2024-01-27T05:11:42;1.95;;;1.27;;
20036;SDS011;10179;42.640;23.312;2024-01-27T05:14:10;2.53;;;0.93;;
20036;SDS011;10179;42.640;23.312;2024-01-27T05:16:36;4.38;;;1.10;;
20036;SDS011;10179;42.640;23.312;2024-01-27T05:19:01;0.90;;;0.65;;
20036;SDS011;10179;42.640;23.312;2024-01-27T05:21:26;3.08;;;1.05;;
20036;SDS011;10179;42.640;23.312;2024-01-27T05:23:52;1.67;;;1.08;;
20036;SDS011;10179;42.640;23.312;2024-01-27T05:26:17;2.72;;;0.90;;
20036;SDS011;10179;42.640;23.312;2024-01-27T05:28:43;2.55;;;0.70;;
20036;SDS011;10179;42.640;23.312;2024-01-27T05:31:08;1.40;;;0.70;;
20036;SDS011;10179;42.640;23.312;2024-01-27T05:33:34;2.28;;;1.00;;
20036;SDS011;10179;42.640;23.312;2024-01-27T05:36:04;2.42;;;1.23;;
20036;SDS011;10179;42.640;23.312;2024-01-27T05:38:30;1.27;;;0.65;;
20036;SDS011;10179;42.640;23.312;2024-01-27T05:40:56;1.50;;;0.80;;
20036;SDS011;10179;42.640;23.312;2024-01-27T05:43:22;4.20;;;1.90;;
20036;SDS011;10179;42.640;23.312;2024-01-27T05:45:48;2.03;;;1.25;;
20036;SDS011;10179;42.640;23.312;2024-01-27T05:48:14;4.50;;;1.35;;
20036;SDS011;10179;42.640;23.312;2024-01-27T05:50:41;3.70;;;1.63;;
20036;SDS011;10179;42.640;23.312;2024-01-27T05:53:07;1.77;;;1.40;;
20036;SDS011;10179;42.640;23.312;2024-01-27T05:55:33;1.58;;;0.80;;
20036;SDS011;10179;42.640;23.312;2024-01-27T05:57:59;3.60;;;1.60;;
20036;SDS011;10179;42.640;23.312;2024-01-27T06:00:24;4.10;;;1.80;;
20036;SDS011;10179;42.640;23.312;2024-01-27T06:02:50;2.40;;;1.50;;
20036;SDS011;10179;42.640;23.312;2024-01-27T06:05:16;1.02;;;0.90;;
20036;SDS011;10179;42.640;23.312;2024-01-27T06:07:42;1.00;;;0.65;;
20036;SDS011;10179;42.640;23.312;2024-01-27T06:10:08;0.50;;;0.50;;
20036;SDS011;10179;42.640;23.312;2024-01-27T06:12:34;0.77;;;0.50;;
20036;SDS011;10179;42.640;23.312;2024-01-27T06:15:00;0.85;;;0.60;;
20036;SDS011;10179;42.640;23.312;2024-01-27T06:17:25;0.40;;;0.40;;
20036;SDS011;10179;42.640;23.312;2024-01-27T06:19:51;0.68;;;0.50;;
20036;SDS011;10179;42.640;23.312;2024-01-27T06:22:16;0.65;;;0.52;;
20036;SDS011;10179;42.640;23.312;2024-01-27T06:24:45;2.63;;;0.60;;
20036;SDS011;10179;42.640;23.312;2024-01-27T06:27:10;0.43;;;0.43;;
20036;SDS011;10179;42.640;23.312;2024-01-27T06:29:36;0.55;;;0.40;;
20036;SDS011;10179;42.640;23.312;2024-01-27T06:32:02;1.00;;;0.60;;
20036;SDS011;10179;42.640;23.312;2024-01-27T06:34:28;1.10;;;0.55;;
20036;SDS011;10179;42.640;23.312;2024-01-27T06:36:53;0.32;;;0.32;;
20036;SDS011;10179;42.640;23.312;2024-01-27T06:39:19;0.50;;;0.50;;
20036;SDS011;10179;42.640;23.312;2024-01-27T06:41:46;2.88;;;0.73;;
20036;SDS011;10179;42.640;23.312;2024-01-27T06:44:12;0.80;;;0.65;;
20036;SDS011;10179;42.640;23.312;2024-01-27T06:46:38;1.00;;;0.55;;
20036;SDS011;10179;42.640;23.312;2024-01-27T06:49:03;0.50;;;0.50;;
20036;SDS011;10179;42.640;23.312;2024-01-27T06:51:29;0.40;;;0.40;;
20036;SDS011;10179;42.640;23.312;2024-01-27T06:53:54;1.15;;;0.52;;
20036;SDS011;10179;42.640;23.312;2024-01-27T06:56:20;0.63;;;0.50;;
20036;SDS011;10179;42.640;23.312;2024-01-27T06:58:45;1.00;;;0.68;;
20036;SDS011;10179;42.640;23.312;2024-01-27T07:01:10;1.33;;;1.05;;
20036;SDS011;10179;42.640;23.312;2024-01-27T07:03:36;1.48;;;0.90;;
20036;SDS011;10179;42.640;23.312;2024-01-27T07:06:01;1.10;;;0.60;;
20036;SDS011;10179;42.640;23.312;2024-01-27T07:08:27;1.40;;;0.88;;
20036;SDS011;10179;42.640;23.312;2024-01-27T07:10:53;1.85;;;1.02;;
20036;SDS011;10179;42.640;23.312;2024-01-27T07:13:18;2.67;;;0.60;;
20036;SDS011;10179;42.640;23.312;2024-01-27T07:15:44;0.88;;;0.70;;
20036;SDS011;10179;42.640;23.312;2024-01-27T07:18:09;0.60;;;0.60;;
20036;SDS011;10179;42.640;23.312;2024-01-27T07:20:36;0.60;;;0.50;;
20036;SDS011;10179;42.640;23.312;2024-01-27T07:23:01;0.77;;;0.70;;
20036;SDS011;10179;42.640;23.312;2024-01-27T07:25:26;0.93;;;0.50;;
20036;SDS011;10179;42.640;23.312;2024-01-27T07:27:53;0.93;;;0.65;;
20036;SDS011;10179;42.640;23.312;2024-01-27T07:30:19;1.20;;;0.93;;
20036;SDS011;10179;42.640;23.312;2024-01-27T07:32:44;2.00;;;1.20;;
20036;SDS011;10179;42.640;23.312;2024-01-27T07:35:10;1.23;;;0.70;;
20036;SDS011;10179;42.640;23.312;2024-01-27T07:37:35;1.42;;;0.98;;
20036;SDS011;10179;42.640;23.312;2024-01-27T07:40:01;0.85;;;0.80;;
20036;SDS011;10179;42.640;23.312;2024-01-27T07:42:27;1.88;;;1.00;;
20036;SDS011;10179;42.640;23.312;2024-01-27T07:44:53;3.13;;;1.55;;
20036;SDS011;10179;42.640;23.312;2024-01-27T07:47:18;3.35;;;1.73;;
20036;SDS011;10179;42.640;23.312;2024-01-27T07:49:44;1.80;;;1.42;;
20036;SDS011;10179;42.640;23.312;2024-01-27T07:52:09;3.80;;;1.58;;
20036;SDS011;10179;42.640;23.312;2024-01-27T07:54:35;2.05;;;1.30;;
20036;SDS011;10179;42.640;23.312;2024-01-27T07:57:05;5.45;;;2.60;;
20036;SDS011;10179;42.640;23.312;2024-01-27T07:59:31;3.15;;;1.60;;
20036;SDS011;10179;42.640;23.312;2024-01-27T08:01:56;4.07;;;2.08;;
20036;SDS011;10179;42.640;23.312;2024-01-27T08:04:22;3.08;;;1.20;;
20036;SDS011;10179;42.640;23.312;2024-01-27T08:06:48;2.47;;;1.70;;
20036;SDS011;10179;42.640;23.312;2024-01-27T08:09:15;3.83;;;1.90;;
20036;SDS011;10179;42.640;23.312;2024-01-27T08:11:42;3.40;;;1.30;;
20036;SDS011;10179;42.640;23.312;2024-01-27T08:14:07;2.25;;;1.55;;
20036;SDS011;10179;42.640;23.312;2024-01-27T08:16:33;2.17;;;1.38;;
20036;SDS011;10179;42.640;23.312;2024-01-27T08:18:58;2.17;;;1.77;;
20036;SDS011;10179;42.640;23.312;2024-01-27T08:21:23;1.48;;;1.23;;
20036;SDS011;10179;42.640;23.312;2024-01-27T08:23:49;2.53;;;1.27;;
20036;SDS011;10179;42.640;23.312;2024-01-27T08:26:14;1.73;;;1.25;;
20036;SDS011;10179;42.640;23.312;2024-01-27T08:28:40;1.35;;;1.25;;
20036;SDS011;10179;42.640;23.312;2024-01-27T08:31:06;3.03;;;1.52;;
20036;SDS011;10179;42.640;23.312;2024-01-27T08:33:31;1.25;;;1.13;;
20036;SDS011;10179;42.640;23.312;2024-01-27T08:35:57;1.13;;;1.02;;
20036;SDS011;10179;42.640;23.312;2024-01-27T08:38:23;1.73;;;1.23;;
20036;SDS011;10179;42.640;23.312;2024-01-27T08:40:48;1.88;;;1.55;;
20036;SDS011;10179;42.640;23.312;2024-01-27T08:43:14;2.08;;;1.45;;
20036;SDS011;10179;42.640;23.312;2024-01-27T08:45:39;3.08;;;1.85;;
20036;SDS011;10179;42.640;23.312;2024-01-27T08:48:05;4.15;;;1.63;;
20036;SDS011;10179;42.640;23.312;2024-01-27T08:50:32;1.45;;;1.30;;
20036;SDS011;10179;42.640;23.312;2024-01-27T08:52:57;2.35;;;1.40;;
20036;SDS011;10179;42.640;23.312;2024-01-27T08:55:23;2.00;;;1.25;;
20036;SDS011;10179;42.640;23.312;2024-01-27T08:57:52;1.40;;;1.15;;
20036;SDS011;10179;42.640;23.312;2024-01-27T09:00:18;2.10;;;1.20;;
20036;SDS011;10179;42.640;23.312;2024-01-27T09:02:44;2.30;;;1.65;;
20036;SDS011;10179;42.640;23.312;2024-01-27T09:05:10;1.73;;;1.38;;
20036;SDS011;10179;42.640;23.312;2024-01-27T09:07:36;2.33;;;1.20;;
20036;SDS011;10179;42.640;23.312;2024-01-27T09:10:01;0.77;;;0.68;;
20036;SDS011;10179;42.640;23.312;2024-01-27T09:12:27;1.27;;;0.80;;
20036;SDS011;10179;42.640;23.312;2024-01-27T09:14:53;1.65;;;0.90;;
20036;SDS011;10179;42.640;23.312;2024-01-27T09:17:19;1.90;;;0.93;;
20036;SDS011;10179;42.640;23.312;2024-01-27T09:19:46;1.00;;;0.90;;
20036;SDS011;10179;42.640;23.312;2024-01-27T09:22:11;6.30;;;1.20;;
20036;SDS011;10179;42.640;23.312;2024-01-27T09:24:37;2.42;;;1.20;;
20036;SDS011;10179;42.640;23.312;2024-01-27T09:27:04;2.00;;;1.48;;
20036;SDS011;10179;42.640;23.312;2024-01-27T09:29:30;3.05;;;1.58;;
20036;SDS011;10179;42.640;23.312;2024-01-27T09:31:55;2.40;;;1.40;;
20036;SDS011;10179;42.640;23.312;2024-01-27T09:34:21;2.47;;;1.27;;
20036;SDS011;10179;42.640;23.312;2024-01-27T09:36:46;2.50;;;1.00;;
20036;SDS011;10179;42.640;23.312;2024-01-27T09:39:12;1.40;;;1.23;;
20036;SDS011;10179;42.640;23.312;2024-01-27T09:41:38;1.55;;;1.10;;
20036;SDS011;10179;42.640;23.312;2024-01-27T09:44:03;2.83;;;1.10;;
20036;SDS011;10179;42.640;23.312;2024-01-27T09:46:30;1.60;;;1.00;;
20036;SDS011;10179;42.640;23.312;2024-01-27T09:48:57;1.33;;;1.23;;
20036;SDS011;10179;42.640;23.312;2024-01-27T09:51:23;2.72;;;1.30;;
20036;SDS011;10179;42.640;23.312;2024-01-27T09:53:49;0.63;;;0.63;;
20036;SDS011;10179;42.640;23.312;2024-01-27T09:56:16;0.98;;;0.85;;
20036;SDS011;10179;42.640;23.312;2024-01-27T09:58:46;3.13;;;1.05;;
20036;SDS011;10179;42.640;23.312;2024-01-27T10:01:12;0.75;;;0.75;;
20036;SDS011;10179;42.640;23.312;2024-01-27T10:03:41;1.05;;;0.90;;
20036;SDS011;10179;42.640;23.312;2024-01-27T10:06:08;2.10;;;1.30;;
20036;SDS011;10179;42.640;23.312;2024-01-27T10:08:35;1.10;;;1.00;;
20036;SDS011;10179;42.640;23.312;2024-01-27T10:11:00;3.50;;;1.40;;
20036;SDS011;10179;42.640;23.312;2024-01-27T10:13:32;1.42;;;1.30;;
20036;SDS011;10179;42.640;23.312;2024-01-27T10:16:01;3.30;;;1.90;;
20036;SDS011;10179;42.640;23.312;2024-01-27T10:18:35;2.08;;;1.25;;
20036;SDS011;10179;42.640;23.312;2024-01-27T10:21:11;1.65;;;1.25;;
20036;SDS011;10179;42.640;23.312;2024-01-27T10:23:45;2.67;;;1.48;;
20036;SDS011;10179;42.640;23.312;2024-01-27T10:26:10;4.78;;;1.75;;
20036;SDS011;10179;42.640;23.312;2024-01-27T10:28:36;1.73;;;1.35;;
20036;SDS011;10179;42.640;23.312;2024-01-27T10:31:11;2.22;;;1.20;;
20036;SDS011;10179;42.640;23.312;2024-01-27T10:33:38;2.45;;;1.67;;
20036;SDS011;10179;42.640;23.312;2024-01-27T10:36:04;2.00;;;1.80;;
20036;SDS011;10179;42.640;23.312;2024-01-27T10:38:39;2.25;;;1.50;;
20036;SDS011;10179;42.640;23.312;2024-01-27T10:41:08;2.60;;;1.27;;
20036;SDS011;10179;42.640;23.312;2024-01-27T10:43:35;1.58;;;1.15;;
20036;SDS011;10179;42.640;23.312;2024-01-27T10:46:06;1.80;;;1.23;;
20036;SDS011;10179;42.640;23.312;2024-01-27T10:48:36;1.58;;;1.13;;
20036;SDS011;10179;42.640;23.312;2024-01-27T10:51:09;1.70;;;0.98;;
20036;SDS011;10179;42.640;23.312;2024-01-27T10:53:35;0.70;;;0.70;;
20036;SDS011;10179;42.640;23.312;2024-01-27T10:56:03;1.27;;;0.80;;
20036;SDS011;10179;42.640;23.312;2024-01-27T10:58:35;1.10;;;1.00;;
20036;SDS011;10179;42.640;23.312;2024-01-27T11:01:12;2.42;;;1.55;;
20036;SDS011;10179;42.640;23.312;2024-01-27T11:03:40;1.20;;;1.10;;
20036;SDS011;10179;42.640;23.312;2024-01-27T11:06:06;1.20;;;1.10;;
20036;SDS011;10179;42.640;23.312;2024-01-27T11:08:36;1.40;;;1.30;;
20036;SDS011;10179;42.640;23.312;2024-01-27T11:11:03;2.50;;;1.25;;
20036;SDS011;10179;42.640;23.312;2024-01-27T11:13:32;1.33;;;1.23;;
20036;SDS011;10179;42.640;23.312;2024-01-27T11:15:59;1.60;;;1.20;;
20036;SDS011;10179;42.640;23.312;2024-01-27T11:18:25;1.77;;;1.27;;
20036;SDS011;10179;42.640;23.312;2024-01-27T11:20:54;1.02;;;0.93;;
20036;SDS011;10179;42.640;23.312;2024-01-27T11:23:30;1.73;;;1.40;;
20036;SDS011;10179;42.640;23.312;2024-01-27T11:26:06;1.80;;;1.48;;
20036;SDS011;10179;42.640;23.312;2024-01-27T11:28:32;2.05;;;1.30;;
20036;SDS011;10179;42.640;23.312;2024-01-27T11:30:58;1.67;;;1.40;;
20036;SDS011;10179;42.640;23.312;2024-01-27T11:33:29;1.00;;;0.90;;
20036;SDS011;10179;42.640;23.312;2024-01-27T11:36:01;1.63;;;1.45;;
20036;SDS011;10179;42.640;23.312;2024-01-27T11:38:30;1.85;;;1.40;;
20036;SDS011;10179;42.640;23.312;2024-01-27T11:40:56;6.25;;;1.70;;
20036;SDS011;10179;42.640;23.312;2024-01-27T11:43:22;12.07;;;3.25;;
20036;SDS011;10179;42.640;23.312;2024-01-27T11:45:57;1.85;;;1.65;;
20036;SDS011;10179;42.640;23.312;2024-01-27T11:48:24;1.50;;;1.40;;
20036;SDS011;10179;42.640;23.312;2024-01-27T11:51:11;2.55;;;1.30;;
20036;SDS011;10179;42.640;23.312;2024-01-27T11:53:36;5.88;;;2.20;;
20036;SDS011;10179;42.640;23.312;2024-01-27T11:56:03;1.52;;;1.42;;
20036;SDS011;10179;42.640;23.312;2024-01-27T11:58:29;2.25;;;1.95;;
20036;SDS011;10179;42.640;23.312;2024-01-27T12:00:56;2.67;;;1.50;;
20036;SDS011;10179;42.640;23.312;2024-01-27T12:03:22;2.17;;;1.27;;
20036;SDS011;10179;42.640;23.312;2024-01-27T12:05:48;1.67;;;1.25;;
20036;SDS011;10179;42.640;23.312;2024-01-27T12:08:13;2.90;;;1.85;;
20036;SDS011;10179;42.640;23.312;2024-01-27T12:10:39;4.32;;;1.67;;
20036;SDS011;10179;42.640;23.312;2024-01-27T12:13:05;2.67;;;1.85;;
20036;SDS011;10179;42.640;23.312;2024-01-27T12:15:30;2.25;;;1.95;;
20036;SDS011;10179;42.640;23.312;2024-01-27T12:17:55;3.15;;;1.90;;
20036;SDS011;10179;42.640;23.312;2024-01-27T12:20:24;2.10;;;1.60;;
20036;SDS011;10179;42.640;23.312;2024-01-27T12:22:50;1.30;;;1.20;;
20036;SDS011;10179;42.640;23.312;2024-01-27T12:25:27;2.28;;;2.05;;
20036;SDS011;10179;42.640;23.312;2024-01-27T12:27:53;5.43;;;2.70;;
20036;SDS011;10179;42.640;23.312;2024-01-27T12:30:18;3.05;;;2.03;;
20036;SDS011;10179;42.640;23.312;2024-01-27T12:32:46;1.38;;;1.23;;
20036;SDS011;10179;42.640;23.312;2024-01-27T12:35:11;1.35;;;1.23;;
20036;SDS011;10179;42.640;23.312;2024-01-27T12:37:38;5.60;;;1.98;;
20036;SDS011;10179;42.640;23.312;2024-01-27T12:40:16;2.55;;;2.00;;
20036;SDS011;10179;42.640;23.312;2024-01-27T12:42:46;2.63;;;1.83;;
20036;SDS011;10179;42.640;23.312;2024-01-27T12:45:12;1.23;;;1.13;;
20036;SDS011;10179;42.640;23.312;2024-01-27T12:47:38;2.17;;;1.70;;
20036;SDS011;10179;42.640;23.312;2024-01-27T12:50:04;1.63;;;1.23;;
20036;SDS011;10179;42.640;23.312;2024-01-27T12:52:31;1.80;;;1.65;;
20036;SDS011;10179;42.640;23.312;2024-01-27T12:54:56;1.48;;;1.38;;
20036;SDS011;10179;42.640;23.312;2024-01-27T12:57:22;3.42;;;2.45;;
20036;SDS011;10179;42.640;23.312;2024-01-27T12:59:48;3.50;;;1.52;;
20036;SDS011;10179;42.640;23.312;2024-01-27T13:02:13;2.42;;;1.33;;
20036;SDS011;10179;42.640;23.312;2024-01-27T13:04:40;9.43;;;1.65;;
20036;SDS011;10179;42.640;23.312;2024-01-27T13:07:06;2.15;;;1.33;;
20036;SDS011;10179;42.640;23.312;2024-01-27T13:09:31;2.88;;;1.55;;
20036;SDS011;10179;42.640;23.312;2024-01-27T13:11:57;1.92;;;1.30;;
20036;SDS011;10179;42.640;23.312;2024-01-27T13:14:22;1.38;;;1.27;;
20036;SDS011;10179;42.640;23.312;2024-01-27T13:16:47;1.58;;;1.48;;
20036;SDS011;10179;42.640;23.312;2024-01-27T13:19:13;1.85;;;1.30;;
20036;SDS011;10179;42.640;23.312;2024-01-27T13:21:38;3.30;;;1.65;;
20036;SDS011;10179;42.640;23.312;2024-01-27T13:24:05;4.00;;;2.28;;
20036;SDS011;10179;42.640;23.312;2024-01-27T13:26:33;2.10;;;1.83;;
20036;SDS011;10179;42.640;23.312;2024-01-27T13:29:03;2.55;;;1.65;;
20036;SDS011;10179;42.640;23.312;2024-01-27T13:31:29;1.67;;;1.52;;
20036;SDS011;10179;42.640;23.312;2024-01-27T13:33:56;2.50;;;1.60;;
20036;SDS011;10179;42.640;23.312;2024-01-27T13:36:22;5.32;;;1.50;;
20036;SDS011;10179;42.640;23.312;2024-01-27T13:38:48;3.33;;;1.80;;
20036;SDS011;10179;42.640;23.312;2024-01-27T13:41:13;3.08;;;1.35;;
20036;SDS011;10179;42.640;23.312;2024-01-27T13:43:40;3.60;;;1.50;;
20036;SDS011;10179;42.640;23.312;2024-01-27T13:46:06;2.42;;;1.88;;
20036;SDS011;10179;42.640;23.312;2024-01-27T13:48:31;2.78;;;1.90;;
20036;SDS011;10179;42.640;23.312;2024-01-27T13:50:57;4.68;;;2.38;;
20036;SDS011;10179;42.640;23.312;2024-01-27T13:53:22;2.80;;;1.60;;
20036;SDS011;10179;42.640;23.312;2024-01-27T13:55:48;3.05;;;1.70;;
20036;SDS011;10179;42.640;23.312;2024-01-27T13:58:14;2.70;;;1.35;;
20036;SDS011;10179;42.640;23.312;2024-01-27T14:00:39;4.72;;;1.90;;
20036;SDS011;10179;42.640;23.312;2024-01-27T14:03:05;2.88;;;1.60;;
20036;SDS011;10179;42.640;23.312;2024-01-27T14:05:30;3.35;;;2.30;;
20036;SDS011;10179;42.640;23.312;2024-01-27T14:07:56;2.42;;;1.45;;
20036;SDS011;10179;42.640;23.312;2024-01-27T14:10:21;2.60;;;1.50;;
20036;SDS011;10179;42.640;23.312;2024-01-27T14:12:47;4.05;;;1.38;;
20036;SDS011;10179;42.640;23.312;2024-01-27T14:15:12;3.95;;;1.50;;
20036;SDS011;10179;42.640;23.312;2024-01-27T14:17:38;1.30;;;1.20;;
20036;SDS011;10179;42.640;23.312;2024-01-27T14:20:03;2.13;;;1.30;;
20036;SDS011;10179;42.640;23.312;2024-01-27T14:22:30;2.88;;;1.10;;
20036;SDS011;10179;42.640;23.312;2024-01-27T14:24:55;2.08;;;1.30;;
20036;SDS011;10179;42.640;23.312;2024-01-27T14:27:21;1.52;;;0.90;;